Time;durP1;ratioP1;P1;durP2;ratioP2;P2;SDS_P1;SDS_P2;PMS_P1;PMS_P2;Temp;Humidity;BMP_temperature;BMP_pressure;BME280_temperature;BME280_humidity;BME280_pressure;Samples;Min_cycle;Max_cycle;Signal;HPM_P1;HPM_P2
2022/01/14 00:01:22;;;;;;;23.20;8.02;;;;;;;;;;5128897;27;20467;-40
2022/01/14 00:03:47;;;;;;;15.82;7.50;;;;;;;;;;5129495;27;20020;-42
2022/01/14 00:06:12;;;;;;;19.90;12.27;;;;;;;;;;5129382;27;20463;-40
2022/01/14 00:08:38;;;;;;;12.68;10.05;;;;;;;;;;5124753;27;20037;-42
2022/01/14 00:11:04;;;;;;;22.52;10.57;;;;;;;;;;5126868;27;20023;-39
2022/01/14 00:16:19;;;;;;;12.27;9.50;;;;;;;;;;5096708;27;20053;-40
2022/01/14 00:18:45;;;;;;;13.30;8.52;;;;;;;;;;5126849;27;20097;-40
2022/01/14 00:21:10;;;;;;;12.45;9.25;;;;;;;;;;5125620;27;20590;-43
2022/01/14 00:23:39;;;;;;;11.10;6.75;;;;;;;;;;5125256;27;20505;-40
2022/01/14 00:34:27;;;;;;;9.88;6.32;;;;;;;;;;5108240;27;20074;-42
2022/01/14 00:36:52;;;;;;;12.52;6.20;;;;;;;;;;5126440;27;20039;-42
2022/01/14 00:39:18;;;;;;;12.70;5.95;;;;;;;;;;5126026;27;20517;-42
2022/01/14 00:41:43;;;;;;;11.38;7.50;;;;;;;;;;5127452;27;20061;-41
2022/01/14 00:44:12;;;;;;;10.52;6.80;;;;;;;;;;5126856;27;20525;-41
2022/01/14 00:46:38;;;;;;;10.75;7.53;;;;;;;;;;5125454;27;20027;-41
2022/01/14 00:49:04;;;;;;;15.98;9.13;;;;;;;;;;5125777;27;20031;-39
2022/01/14 00:51:29;;;;;;;24.63;8.82;;;;;;;;;;5125462;27;20019;-43
2022/01/14 00:53:55;;;;;;;11.40;6.10;;;;;;;;;;5126164;27;20019;-42
2022/01/14 00:56:33;;;;;;;11.10;7.57;;;;;;;;;;5125878;27;20072;-41
2022/01/14 00:59:14;;;;;;;21.73;6.68;;;;;;;;;;5124395;27;20093;-39
2022/01/14 01:01:40;;;;;;;19.75;7.90;;;;;;;;;;5126466;27;20027;-41
2022/01/14 01:04:05;;;;;;;14.85;6.45;;;;;;;;;;5126471;27;20031;-43
2022/01/14 01:06:31;;;;;;;10.02;5.35;;;;;;;;;;5126364;27;20480;-43
2022/01/14 01:08:57;;;;;;;8.23;4.97;;;;;;;;;;5127711;27;20106;-41
2022/01/14 01:11:30;;;;;;;9.15;6.05;;;;;;;;;;5127527;27;20467;-42
2022/01/14 01:14:09;;;;;;;22.58;9.35;;;;;;;;;;5126718;27;20022;-44
2022/01/14 01:16:34;;;;;;;13.02;8.80;;;;;;;;;;5125770;27;20077;-46
2022/01/14 01:18:59;;;;;;;13.77;9.35;;;;;;;;;;5128448;27;20489;-39
2022/01/14 01:21:25;;;;;;;17.00;8.57;;;;;;;;;;5128189;27;20412;-39
2022/01/14 01:23:50;;;;;;;14.48;7.88;;;;;;;;;;5124632;27;20511;-39
2022/01/14 01:26:24;;;;;;;8.93;5.88;;;;;;;;;;5124908;27;20537;-41
2022/01/14 01:31:36;;;;;;;7.55;5.20;;;;;;;;;;5126114;27;20031;-44
2022/01/14 01:34:02;;;;;;;21.60;7.60;;;;;;;;;;5124828;27;20023;-41
2022/01/14 01:36:28;;;;;;;16.13;9.27;;;;;;;;;;5125298;27;20022;-40
2022/01/14 01:38:53;;;;;;;10.45;6.53;;;;;;;;;;5124910;27;20102;-41
2022/01/14 01:41:19;;;;;;;14.60;6.60;;;;;;;;;;5126243;27;20399;-40
2022/01/14 01:43:50;;;;;;;8.80;4.22;;;;;;;;;;5124498;27;20539;-42
2022/01/14 01:46:16;;;;;;;11.40;5.63;;;;;;;;;;5124617;27;20100;-45
2022/01/14 01:48:41;;;;;;;25.90;12.73;;;;;;;;;;5125263;27;20041;-40
2022/01/14 01:51:06;;;;;;;7.65;4.57;;;;;;;;;;5125839;27;20038;-43
2022/01/14 01:53:32;;;;;;;14.85;5.40;;;;;;;;;;5126227;27;20019;-44
2022/01/14 01:55:57;;;;;;;7.72;4.93;;;;;;;;;;5125518;27;20785;-40
2022/01/14 01:58:22;;;;;;;9.65;5.82;;;;;;;;;;5124581;27;20098;-43
2022/01/14 02:00:47;;;;;;;8.77;4.97;;;;;;;;;;5124068;27;20432;-44
2022/01/14 02:03:13;;;;;;;7.05;4.30;;;;;;;;;;5125695;27;20051;-41
2022/01/14 02:05:39;;;;;;;6.97;5.00;;;;;;;;;;5125829;27;20798;-42
2022/01/14 02:08:04;;;;;;;12.43;5.20;;;;;;;;;;5124118;27;20096;-43
2022/01/14 02:10:29;;;;;;;13.10;5.30;;;;;;;;;;5125225;27;20061;-40
2022/01/14 02:12:55;;;;;;;8.00;5.03;;;;;;;;;;5124618;27;20047;-42
2022/01/14 02:23:52;;;;;;;19.40;7.13;;;;;;;;;;5125158;28;20030;-40
2022/01/14 02:26:18;;;;;;;19.27;5.90;;;;;;;;;;5125461;28;20042;-42
2022/01/14 02:28:44;;;;;;;17.45;7.97;;;;;;;;;;5124790;28;20086;-41
2022/01/14 02:31:09;;;;;;;10.05;7.57;;;;;;;;;;5125888;28;20031;-42
2022/01/14 02:33:34;;;;;;;17.60;9.20;;;;;;;;;;5125890;28;20463;-43
2022/01/14 02:36:01;;;;;;;15.13;9.07;;;;;;;;;;5126622;28;20023;-46
2022/01/14 02:38:26;;;;;;;8.27;6.75;;;;;;;;;;5120348;28;20058;-47
2022/01/14 02:40:51;;;;;;;13.02;6.28;;;;;;;;;;5121990;28;20545;-41
2022/01/14 02:43:17;;;;;;;19.15;9.80;;;;;;;;;;5125162;27;20049;-41
2022/01/14 02:45:46;;;;;;;17.92;7.38;;;;;;;;;;5128000;27;20023;-47
2022/01/14 02:48:12;;;;;;;12.02;7.60;;;;;;;;;;5129127;27;20022;-41
2022/01/14 02:50:52;;;;;;;15.65;8.63;;;;;;;;;;5128054;27;20023;-43
2022/01/14 02:53:30;;;;;;;9.77;4.88;;;;;;;;;;5128399;27;20064;-43
2022/01/14 02:55:56;;;;;;;17.00;11.20;;;;;;;;;;5127177;27;20449;-43
2022/01/14 02:58:23;;;;;;;15.68;11.98;;;;;;;;;;5128674;27;20474;-41
2022/01/14 03:00:50;;;;;;;10.43;6.82;;;;;;;;;;5128692;27;20027;-40
2022/01/14 03:03:16;;;;;;;17.30;9.10;;;;;;;;;;5127484;27;20529;-46
2022/01/14 03:05:41;;;;;;;10.30;6.30;;;;;;;;;;5127959;27;20040;-42
2022/01/14 03:08:07;;;;;;;13.05;5.10;;;;;;;;;;5127829;27;20038;-43
2022/01/14 03:10:32;;;;;;;9.20;4.90;;;;;;;;;;5127255;27;20019;-41
2022/01/14 03:12:58;;;;;;;11.23;5.55;;;;;;;;;;5128139;27;20652;-41
2022/01/14 03:15:23;;;;;;;13.52;6.15;;;;;;;;;;5128178;27;20087;-41
2022/01/14 03:17:48;;;;;;;11.98;4.43;;;;;;;;;;5128385;27;20015;-40
2022/01/14 03:20:41;;;;;;;8.63;5.80;;;;;;;;;;5128241;27;20027;-40
2022/01/14 03:23:05;;;;;;;10.57;4.40;;;;;;;;;;5126971;27;20039;-40
2022/01/14 03:25:47;;;;;;;5.43;3.97;;;;;;;;;;5125308;27;20032;-43
2022/01/14 03:28:13;;;;;;;24.67;8.93;;;;;;;;;;5128320;27;20035;-43
2022/01/14 03:30:39;;;;;;;9.10;5.63;;;;;;;;;;5127541;27;20023;-41
2022/01/14 03:33:04;;;;;;;10.27;5.72;;;;;;;;;;5127152;27;20113;-42
2022/01/14 03:35:29;;;;;;;7.68;5.45;;;;;;;;;;5127074;27;20031;-44
2022/01/14 03:37:55;;;;;;;13.23;6.10;;;;;;;;;;5127586;27;20098;-43
2022/01/14 03:40:21;;;;;;;8.85;5.78;;;;;;;;;;5129199;27;20023;-43
2022/01/14 03:42:46;;;;;;;7.90;5.63;;;;;;;;;;5129240;27;20026;-40
2022/01/14 03:45:11;;;;;;;20.00;5.40;;;;;;;;;;5128691;27;20046;-41
2022/01/14 03:47:37;;;;;;;8.52;5.60;;;;;;;;;;5129905;27;20493;-43
2022/01/14 03:50:02;;;;;;;6.95;4.13;;;;;;;;;;5129383;27;20027;-44
2022/01/14 03:52:28;;;;;;;9.15;5.38;;;;;;;;;;5129966;27;20035;-40
2022/01/14 03:54:53;;;;;;;8.48;6.55;;;;;;;;;;5129190;27;20088;-40
2022/01/14 03:57:18;;;;;;;10.60;6.60;;;;;;;;;;5125717;27;20090;-42
2022/01/14 03:59:43;;;;;;;7.30;3.90;;;;;;;;;;5126672;27;20023;-40
2022/01/14 04:02:09;;;;;;;11.00;7.55;;;;;;;;;;5127509;27;20542;-41
2022/01/14 04:04:35;;;;;;;15.23;10.73;;;;;;;;;;5127472;27;20051;-42
2022/01/14 04:07:00;;;;;;;22.75;13.55;;;;;;;;;;5126839;27;20261;-42
2022/01/14 04:09:26;;;;;;;17.73;5.05;;;;;;;;;;5126450;27;20478;-41
2022/01/14 04:11:51;;;;;;;15.23;4.50;;;;;;;;;;5126818;27;20031;-42
2022/01/14 04:16:51;;;;;;;12.65;3.95;;;;;;;;;;5127024;27;20021;-40
2022/01/14 04:19:17;;;;;;;10.82;5.68;;;;;;;;;;5126307;27;20019;-43
2022/01/14 04:21:42;;;;;;;9.25;6.20;;;;;;;;;;5125905;27;20061;-41
2022/01/14 04:24:07;;;;;;;10.93;5.18;;;;;;;;;;5108329;27;20038;-44
2022/01/14 04:26:32;;;;;;;10.35;5.97;;;;;;;;;;5128354;27;20030;-48
2022/01/14 04:28:58;;;;;;;15.13;6.70;;;;;;;;;;5124760;27;20393;-46
2022/01/14 04:31:23;;;;;;;8.63;5.78;;;;;;;;;;5124452;27;20148;-45
2022/01/14 04:33:48;;;;;;;6.32;4.40;;;;;;;;;;5126583;27;20011;-42
2022/01/14 04:36:14;;;;;;;8.40;4.70;;;;;;;;;;5126008;27;20037;-43
2022/01/14 04:38:39;;;;;;;6.25;2.85;;;;;;;;;;5125566;27;20166;-46
2022/01/14 04:41:04;;;;;;;2.10;1.75;;;;;;;;;;5126147;27;20065;-41
2022/01/14 04:43:30;;;;;;;2.17;1.52;;;;;;;;;;5127692;27;20019;-41
2022/01/14 04:48:23;;;;;;;12.90;3.30;;;;;;;;;;5125431;27;20097;-45
2022/01/14 04:50:52;;;;;;;9.57;2.92;;;;;;;;;;5126726;27;20499;-41
2022/01/14 04:53:17;;;;;;;7.47;2.53;;;;;;;;;;5127412;27;20026;-47
2022/01/14 04:55:43;;;;;;;3.95;2.45;;;;;;;;;;5126262;27;20534;-41
2022/01/14 04:58:08;;;;;;;6.32;2.90;;;;;;;;;;5122830;27;20025;-42
2022/01/14 05:00:35;;;;;;;12.18;2.75;;;;;;;;;;5127229;27;20110;-42
2022/01/14 05:03:00;;;;;;;8.50;3.03;;;;;;;;;;5126442;27;20046;-43
2022/01/14 05:05:29;;;;;;;6.38;2.58;;;;;;;;;;5128634;27;20041;-43
2022/01/14 05:07:55;;;;;;;6.68;2.78;;;;;;;;;;5127063;27;20023;-41
2022/01/14 05:12:48;;;;;;;6.95;2.17;;;;;;;;;;5128167;27;20026;-45
2022/01/14 05:15:16;;;;;;;5.88;3.45;;;;;;;;;;5127026;27;20393;-42
2022/01/14 05:17:41;;;;;;;11.20;2.22;;;;;;;;;;5128341;27;20015;-46
2022/01/14 05:20:07;;;;;;;3.35;1.58;;;;;;;;;;5128019;27;20019;-41
2022/01/14 05:22:32;;;;;;;15.15;4.22;;;;;;;;;;5128081;27;20051;-44
2022/01/14 05:24:58;;;;;;;3.65;2.15;;;;;;;;;;5128304;27;20015;-41
2022/01/14 05:27:23;;;;;;;5.35;3.03;;;;;;;;;;5128319;27;20524;-45
2022/01/14 05:29:49;;;;;;;4.40;2.00;;;;;;;;;;5128475;27;20046;-45
2022/01/14 05:32:15;;;;;;;5.30;2.78;;;;;;;;;;5129062;27;20366;-43
2022/01/14 05:34:42;;;;;;;8.32;4.53;;;;;;;;;;5127082;27;20131;-44
2022/01/14 05:37:07;;;;;;;10.05;4.50;;;;;;;;;;5128100;27;20025;-41
2022/01/14 05:39:33;;;;;;;7.80;4.28;;;;;;;;;;5128652;27;20026;-43
2022/01/14 05:42:00;;;;;;;2.95;2.00;;;;;;;;;;5127429;27;20045;-42
2022/01/14 05:44:26;;;;;;;7.85;3.25;;;;;;;;;;5127258;27;20015;-39
2022/01/14 05:46:51;;;;;;;5.82;3.45;;;;;;;;;;5127820;27;20019;-40
2022/01/14 05:49:17;;;;;;;5.95;3.67;;;;;;;;;;5127703;27;20033;-43
2022/01/14 05:51:43;;;;;;;7.13;5.00;;;;;;;;;;5126701;27;20390;-40
2022/01/14 05:54:08;;;;;;;11.20;3.63;;;;;;;;;;5125459;27;20359;-41
2022/01/14 05:56:33;;;;;;;8.10;3.72;;;;;;;;;;5126944;27;20022;-40
2022/01/14 05:58:59;;;;;;;18.95;4.78;;;;;;;;;;5126261;27;20095;-38
2022/01/14 06:01:24;;;;;;;8.18;3.45;;;;;;;;;;5124809;27;20084;-40
2022/01/14 06:03:49;;;;;;;14.07;7.07;;;;;;;;;;5127300;27;20019;-41
2022/01/14 06:06:15;;;;;;;5.82;3.65;;;;;;;;;;5126395;27;20027;-39
2022/01/14 06:08:40;;;;;;;10.05;3.22;;;;;;;;;;5125619;27;20080;-40
2022/01/14 06:11:05;;;;;;;15.68;9.60;;;;;;;;;;5127142;27;20040;-46
2022/01/14 06:13:31;;;;;;;15.27;6.45;;;;;;;;;;5125227;27;20018;-43
2022/01/14 06:15:56;;;;;;;26.30;23.48;;;;;;;;;;5124195;27;20008;-46
2022/01/14 06:18:21;;;;;;;8.00;5.53;;;;;;;;;;5126273;27;20535;-46
2022/01/14 06:20:47;;;;;;;9.25;5.10;;;;;;;;;;5126677;27;20433;-47
2022/01/14 06:23:15;;;;;;;23.63;3.88;;;;;;;;;;5126517;27;20478;-46
2022/01/14 06:25:41;;;;;;;3.10;2.40;;;;;;;;;;5126816;28;20024;-45
2022/01/14 06:28:07;;;;;;;6.43;3.05;;;;;;;;;;5125994;28;20033;-48
2022/01/14 06:30:32;;;;;;;17.67;3.60;;;;;;;;;;5125391;28;20023;-48
2022/01/14 06:32:57;;;;;;;18.65;3.95;;;;;;;;;;5125264;28;20031;-47
2022/01/14 06:35:23;;;;;;;19.00;4.68;;;;;;;;;;5126291;28;20070;-50
2022/01/14 06:37:49;;;;;;;21.25;7.20;;;;;;;;;;5124729;28;20012;-44
2022/01/14 06:40:14;;;;;;;21.33;7.55;;;;;;;;;;5126496;28;20015;-51
2022/01/14 06:42:40;;;;;;;15.27;6.88;;;;;;;;;;5125102;28;20516;-45
2022/01/14 06:45:06;;;;;;;19.63;7.10;;;;;;;;;;5123619;28;20059;-49
2022/01/14 06:47:31;;;;;;;12.25;6.75;;;;;;;;;;5124053;27;20019;-45
2022/01/14 06:49:56;;;;;;;10.55;6.03;;;;;;;;;;5125219;28;20102;-45
2022/01/14 06:52:22;;;;;;;10.00;6.15;;;;;;;;;;5125077;28;20031;-43
2022/01/14 06:54:47;;;;;;;12.77;6.88;;;;;;;;;;5124586;28;20482;-45
2022/01/14 06:57:13;;;;;;;12.65;6.80;;;;;;;;;;5124423;28;20019;-48
2022/01/14 06:59:38;;;;;;;52.00;32.67;;;;;;;;;;5126572;28;20023;-46
2022/01/14 07:02:04;;;;;;;23.17;16.50;;;;;;;;;;5125899;28;20031;-44
2022/01/14 07:04:29;;;;;;;23.38;12.60;;;;;;;;;;5126404;28;20469;-48
2022/01/14 07:06:55;;;;;;;13.70;6.28;;;;;;;;;;5126323;28;20047;-49
2022/01/14 07:09:20;;;;;;;15.75;9.32;;;;;;;;;;5124493;28;20050;-47
2022/01/14 07:11:52;;;;;;;17.13;9.50;;;;;;;;;;5126408;28;20031;-50
2022/01/14 07:14:17;;;;;;;18.40;12.25;;;;;;;;;;5126177;28;21023;-46
2022/01/14 07:16:43;;;;;;;8.80;7.32;;;;;;;;;;5126487;28;20029;-48
2022/01/14 07:19:08;;;;;;;30.35;21.65;;;;;;;;;;5125938;28;20101;-45
2022/01/14 07:21:34;;;;;;;8.05;6.07;;;;;;;;;;5126313;27;20043;-47
2022/01/14 07:24:00;;;;;;;16.65;8.13;;;;;;;;;;5126125;28;20111;-46
2022/01/14 07:26:25;;;;;;;8.00;6.15;;;;;;;;;;5124970;28;20114;-50
2022/01/14 07:28:51;;;;;;;27.02;10.30;;;;;;;;;;5126588;28;20486;-52
2022/01/14 07:31:16;;;;;;;15.25;11.50;;;;;;;;;;5129025;27;20034;-52
2022/01/14 07:33:41;;;;;;;13.63;8.18;;;;;;;;;;5129845;27;20082;-53
2022/01/14 07:36:07;;;;;;;21.80;10.27;;;;;;;;;;5128094;27;20022;-51
2022/01/14 07:38:32;;;;;;;27.67;16.42;;;;;;;;;;5129777;27;20027;-50
2022/01/14 07:40:57;;;;;;;49.13;29.75;;;;;;;;;;5129978;27;20031;-48
2022/01/14 07:43:23;;;;;;;53.42;28.42;;;;;;;;;;5129623;27;20454;-48
2022/01/14 07:45:48;;;;;;;48.15;26.30;;;;;;;;;;5130279;27;20031;-50
2022/01/14 07:48:13;;;;;;;133.55;44.55;;;;;;;;;;5130462;27;20138;-50
2022/01/14 07:50:39;;;;;;;52.78;28.83;;;;;;;;;;5127983;27;20378;-52
2022/01/14 07:53:04;;;;;;;99.15;37.47;;;;;;;;;;5129572;27;20454;-49
2022/01/14 07:55:30;;;;;;;40.50;21.52;;;;;;;;;;5128777;27;20049;-54
2022/01/14 07:57:55;;;;;;;26.73;19.63;;;;;;;;;;5128394;27;20075;-50
2022/01/14 08:00:20;;;;;;;42.20;21.27;;;;;;;;;;5129861;27;20088;-50
2022/01/14 08:02:46;;;;;;;45.08;19.98;;;;;;;;;;5129670;27;20038;-50
2022/01/14 08:05:12;;;;;;;35.00;23.02;;;;;;;;;;5129645;27;20485;-48
2022/01/14 08:07:44;;;;;;;36.58;22.33;;;;;;;;;;5128771;27;20034;-50
2022/01/14 08:10:11;;;;;;;27.38;21.15;;;;;;;;;;5129516;27;20019;-51
2022/01/14 08:12:36;;;;;;;27.63;20.60;;;;;;;;;;5128827;27;20031;-47
2022/01/14 08:15:04;;;;;;;34.05;21.27;;;;;;;;;;5129455;27;20498;-49
2022/01/14 08:17:29;;;;;;;51.40;27.02;;;;;;;;;;5129248;27;20019;-52
2022/01/14 08:19:55;;;;;;;48.17;27.90;;;;;;;;;;5128639;27;20561;-50
2022/01/14 08:22:20;;;;;;;50.35;31.23;;;;;;;;;;5129078;27;20053;-49
2022/01/14 08:24:47;;;;;;;41.38;29.23;;;;;;;;;;5127162;27;20039;-50
2022/01/14 08:27:12;;;;;;;39.78;29.70;;;;;;;;;;5128145;27;20063;-49
2022/01/14 08:29:37;;;;;;;52.90;45.28;;;;;;;;;;5128323;27;20209;-49
2022/01/14 08:32:03;;;;;;;69.63;43.47;;;;;;;;;;5128061;27;20390;-51
2022/01/14 08:34:28;;;;;;;70.13;48.35;;;;;;;;;;5126745;27;20377;-51
2022/01/14 08:36:53;;;;;;;74.75;53.28;;;;;;;;;;5127373;27;20019;-49
2022/01/14 08:39:19;;;;;;;74.57;56.22;;;;;;;;;;5127937;27;20549;-52
2022/01/14 08:41:44;;;;;;;71.25;55.08;;;;;;;;;;5128553;27;20529;-51
2022/01/14 08:44:10;;;;;;;70.78;58.38;;;;;;;;;;5128062;27;20033;-51
2022/01/14 08:46:35;;;;;;;79.68;61.13;;;;;;;;;;5126600;27;20110;-48
2022/01/14 08:49:01;;;;;;;84.57;61.35;;;;;;;;;;5127492;27;20027;-50
2022/01/14 08:51:28;;;;;;;108.85;80.20;;;;;;;;;;5128291;27;20114;-52
2022/01/14 08:53:53;;;;;;;99.45;70.93;;;;;;;;;;5127699;27;20493;-48
2022/01/14 08:56:19;;;;;;;89.88;65.72;;;;;;;;;;5127878;27;20027;-51
2022/01/14 08:58:44;;;;;;;76.38;61.38;;;;;;;;;;5124132;27;20086;-48
2022/01/14 09:01:10;;;;;;;86.53;60.72;;;;;;;;;;5126458;27;20117;-56
2022/01/14 09:03:35;;;;;;;56.17;48.53;;;;;;;;;;5127284;27;20030;-57
2022/01/14 09:06:00;;;;;;;54.38;48.40;;;;;;;;;;5127014;27;20023;-58
2022/01/14 09:08:26;;;;;;;54.85;45.92;;;;;;;;;;5128284;27;20377;-58
2022/01/14 09:10:51;;;;;;;59.63;47.17;;;;;;;;;;5125827;27;20647;-59
2022/01/14 09:13:17;;;;;;;55.67;48.20;;;;;;;;;;5125908;27;20008;-59
2022/01/14 09:15:43;;;;;;;61.13;46.15;;;;;;;;;;5126456;27;20068;-59
2022/01/14 09:18:08;;;;;;;57.30;45.03;;;;;;;;;;5126933;27;20106;-59
2022/01/14 09:20:33;;;;;;;89.22;57.50;;;;;;;;;;5128096;27;20374;-58
2022/01/14 09:22:59;;;;;;;103.43;72.03;;;;;;;;;;5126228;27;20402;-57
2022/01/14 09:25:25;;;;;;;102.90;64.35;;;;;;;;;;5127966;27;20019;-59
2022/01/14 09:27:52;;;;;;;87.32;64.00;;;;;;;;;;5127576;27;20034;-59
2022/01/14 09:30:18;;;;;;;87.97;68.80;;;;;;;;;;5125179;27;20574;-58
2022/01/14 09:32:43;;;;;;;77.70;54.97;;;;;;;;;;5109194;27;20154;-59
2022/01/14 09:35:13;;;;;;;69.30;50.92;;;;;;;;;;5127401;27;20359;-60
2022/01/14 09:37:39;;;;;;;77.35;49.97;;;;;;;;;;5127621;27;20413;-59
2022/01/14 09:40:05;;;;;;;64.18;47.53;;;;;;;;;;5127600;27;20007;-59
2022/01/14 09:42:31;;;;;;;55.83;41.35;;;;;;;;;;5126621;27;20023;-62
2022/01/14 09:44:57;;;;;;;40.55;31.98;;;;;;;;;;5125114;27;20019;-58
2022/01/14 09:47:23;;;;;;;49.17;38.58;;;;;;;;;;5126816;27;20394;-65
2022/01/14 09:49:48;;;;;;;54.05;35.45;;;;;;;;;;5124747;27;20474;-58
2022/01/14 09:52:14;;;;;;;33.55;30.45;;;;;;;;;;5122671;27;20030;-62
2022/01/14 09:54:40;;;;;;;18.45;12.18;;;;;;;;;;5126642;27;20011;-62
2022/01/14 09:57:08;;;;;;;16.73;12.18;;;;;;;;;;5124089;27;20027;-60
2022/01/14 09:59:34;;;;;;;26.23;12.15;;;;;;;;;;5126414;27;20259;-55
2022/01/14 10:02:00;;;;;;;15.75;10.90;;;;;;;;;;5127233;27;20526;-62
2022/01/14 10:04:25;;;;;;;17.30;10.82;;;;;;;;;;5125601;27;20197;-62
2022/01/14 10:07:00;;;;;;;10.70;8.25;;;;;;;;;;5126893;27;20402;-61
2022/01/14 10:09:33;;;;;;;17.58;9.88;;;;;;;;;;5127800;27;20125;-62
2022/01/14 10:12:00;;;;;;;11.13;8.15;;;;;;;;;;5126183;27;20031;-61
2022/01/14 10:14:25;;;;;;;11.50;7.70;;;;;;;;;;5126168;27;20015;-61
2022/01/14 10:16:55;;;;;;;18.95;7.90;;;;;;;;;;5125935;27;20018;-62
2022/01/14 10:19:21;;;;;;;10.75;6.07;;;;;;;;;;5106893;28;20072;-64
2022/01/14 10:21:47;;;;;;;15.50;9.82;;;;;;;;;;5126387;27;20059;-62
2022/01/14 10:24:13;;;;;;;11.20;10.05;;;;;;;;;;5126031;27;20027;-63
2022/01/14 10:26:48;;;;;;;12.63;10.50;;;;;;;;;;5126572;28;20110;-63
2022/01/14 10:29:14;;;;;;;12.35;10.15;;;;;;;;;;5126631;28;20398;-67
2022/01/14 10:31:42;;;;;;;13.88;11.25;;;;;;;;;;5124236;28;20016;-64
2022/01/14 10:34:13;;;;;;;14.73;12.23;;;;;;;;;;5126213;28;20015;-63
2022/01/14 10:36:41;;;;;;;28.00;17.40;;;;;;;;;;5123919;28;20036;-64
2022/01/14 10:39:20;;;;;;;20.00;13.93;;;;;;;;;;5126037;28;20019;-63
2022/01/14 10:41:46;;;;;;;15.05;12.13;;;;;;;;;;5123813;28;20027;-64
2022/01/14 10:44:27;;;;;;;20.30;10.30;;;;;;;;;;5119739;28;20034;-64
2022/01/14 10:47:11;;;;;;;19.65;12.48;;;;;;;;;;5123632;28;20022;-64
2022/01/14 10:49:37;;;;;;;17.17;9.27;;;;;;;;;;5124895;28;20046;-65
2022/01/14 10:52:15;;;;;;;12.50;10.35;;;;;;;;;;5124523;28;20031;-65
2022/01/14 10:54:41;;;;;;;22.35;15.55;;;;;;;;;;5122473;28;20130;-65
2022/01/14 10:57:13;;;;;;;18.85;13.80;;;;;;;;;;5123561;27;20022;-63
2022/01/14 10:59:39;;;;;;;16.80;12.68;;;;;;;;;;5124823;28;20025;-63
2022/01/14 11:02:24;;;;;;;14.98;12.00;;;;;;;;;;5105804;28;20027;-64
2022/01/14 11:05:08;;;;;;;11.90;9.93;;;;;;;;;;5123770;27;20023;-63
2022/01/14 11:07:34;;;;;;;13.63;11.38;;;;;;;;;;5127907;27;20017;-63
2022/01/14 11:09:59;;;;;;;18.08;10.70;;;;;;;;;;5127802;27;20105;-65
2022/01/14 11:12:25;;;;;;;17.60;12.27;;;;;;;;;;5128481;27;20023;-64
2022/01/14 11:14:51;;;;;;;17.67;13.30;;;;;;;;;;5128876;27;20019;-65
2022/01/14 11:17:16;;;;;;;25.73;12.02;;;;;;;;;;5128066;27;20030;-63
2022/01/14 11:19:45;;;;;;;32.95;14.45;;;;;;;;;;5126778;27;20030;-63
2022/01/14 11:24:54;;;;;;;15.52;10.07;;;;;;;;;;5127203;27;20132;-63
2022/01/14 11:27:20;;;;;;;20.67;12.35;;;;;;;;;;5128504;27;20740;-63
2022/01/14 11:29:47;;;;;;;26.05;14.43;;;;;;;;;;5128264;27;20027;-64
2022/01/14 11:32:12;;;;;;;15.32;10.88;;;;;;;;;;5127499;27;20504;-61
2022/01/14 11:34:42;;;;;;;19.60;6.68;;;;;;;;;;5127588;27;20531;-63
2022/01/14 11:37:17;;;;;;;12.20;5.60;;;;;;;;;;5127950;27;20051;-63
2022/01/14 11:39:58;;;;;;;7.57;4.53;;;;;;;;;;5127119;27;20082;-64
2022/01/14 11:42:42;;;;;;;9.80;5.35;;;;;;;;;;5127043;27;20023;-65
2022/01/14 11:45:08;;;;;;;38.40;27.75;;;;;;;;;;5124410;27;20060;-65
2022/01/14 11:47:39;;;;;;;36.88;23.73;;;;;;;;;;5127979;27;20538;-65
2022/01/14 11:50:21;;;;;;;21.88;19.42;;;;;;;;;;5128706;27;20038;-65
2022/01/14 11:52:48;;;;;;;42.85;23.92;;;;;;;;;;5128028;27;20031;-65
2022/01/14 11:55:23;;;;;;;19.27;15.20;;;;;;;;;;5128477;27;20812;-65
2022/01/14 11:57:48;;;;;;;19.13;11.43;;;;;;;;;;5127254;27;20019;-65
2022/01/14 12:00:38;;;;;;;17.15;8.00;;;;;;;;;;5129453;27;20385;-65
2022/01/14 12:03:15;;;;;;;9.48;6.22;;;;;;;;;;5128531;27;20030;-64
2022/01/14 12:06:00;;;;;;;17.80;7.80;;;;;;;;;;5128710;27;20541;-64
2022/01/14 12:08:29;;;;;;;10.75;6.57;;;;;;;;;;5129030;27;20019;-64
2022/01/14 12:11:07;;;;;;;17.00;5.25;;;;;;;;;;5127744;27;20509;-64
2022/01/14 12:13:43;;;;;;;5.95;4.97;;;;;;;;;;5128925;27;20113;-64
2022/01/14 12:18:57;;;;;;;13.50;9.70;;;;;;;;;;5128470;27;20023;-65
2022/01/14 12:21:37;;;;;;;10.27;5.25;;;;;;;;;;5128226;27;20074;-64
2022/01/14 12:24:27;;;;;;;14.47;4.87;;;;;;;;;;5124019;27;20090;-65
2022/01/14 12:26:52;;;;;;;9.32;4.80;;;;;;;;;;5112675;27;20034;-64
2022/01/14 12:29:19;;;;;;;11.25;7.20;;;;;;;;;;5129082;27;20045;-64
2022/01/14 12:32:02;;;;;;;150.52;107.05;;;;;;;;;;5128304;27;20046;-64
2022/01/14 12:34:28;;;;;;;21.83;16.08;;;;;;;;;;5127662;27;20082;-64
2022/01/14 12:36:54;;;;;;;16.40;8.68;;;;;;;;;;5129179;27;20737;-64
2022/01/14 12:39:19;;;;;;;22.08;15.82;;;;;;;;;;5128529;27;20019;-64
2022/01/14 12:41:45;;;;;;;42.08;32.75;;;;;;;;;;5126802;27;20021;-64
2022/01/14 12:44:10;;;;;;;51.15;35.35;;;;;;;;;;5128653;27;20023;-64
2022/01/14 12:46:40;;;;;;;26.10;17.02;;;;;;;;;;5127081;27;20051;-64
2022/01/14 12:49:07;;;;;;;61.95;26.77;;;;;;;;;;5129433;27;20027;-65
2022/01/14 12:51:32;;;;;;;10.10;7.25;;;;;;;;;;5129205;27;20019;-63
2022/01/14 12:53:59;;;;;;;19.40;14.38;;;;;;;;;;5128341;27;20414;-63
2022/01/14 12:56:25;;;;;;;25.73;14.35;;;;;;;;;;5128702;27;20020;-64
2022/01/14 12:58:57;;;;;;;19.65;8.45;;;;;;;;;;5127227;27;20627;-63
2022/01/14 13:01:22;;;;;;;;;;;;;;;;;;5128937;27;20027;-64
2022/01/14 13:03:47;;;;;;;24.20;12.00;;;;;;;;;;5128302;27;20013;-63
2022/01/14 13:06:13;;;;;;;31.00;20.42;;;;;;;;;;5128658;27;20023;-63
2022/01/14 13:08:38;;;;;;;32.10;18.38;;;;;;;;;;5128338;27;20019;-64
2022/01/14 13:11:04;;;;;;;34.70;30.23;;;;;;;;;;5126510;27;20034;-64
2022/01/14 13:13:30;;;;;;;14.65;10.68;;;;;;;;;;5125697;27;20026;-64
2022/01/14 13:16:03;;;;;;;12.60;5.93;;;;;;;;;;5127869;27;20019;-64
2022/01/14 13:18:34;;;;;;;11.60;7.25;;;;;;;;;;5126387;27;20019;-65
2022/01/14 13:20:59;;;;;;;14.52;6.20;;;;;;;;;;5127888;27;20395;-66
2022/01/14 13:23:25;;;;;;;8.07;4.10;;;;;;;;;;5127462;27;20027;-65
2022/01/14 13:25:51;;;;;;;14.52;6.32;;;;;;;;;;5127990;27;20076;-62
2022/01/14 13:28:16;;;;;;;201.27;133.05;;;;;;;;;;5127341;27;20015;-67
2022/01/14 13:30:43;;;;;;;55.88;37.92;;;;;;;;;;5128166;27;20026;-62
2022/01/14 13:33:09;;;;;;;30.23;19.88;;;;;;;;;;5128338;27;20106;-60
2022/01/14 13:35:36;;;;;;;19.38;12.85;;;;;;;;;;5127563;27;20011;-60
2022/01/14 13:38:05;;;;;;;15.20;9.10;;;;;;;;;;5128185;27;20643;-61
2022/01/14 13:40:33;;;;;;;8.27;6.78;;;;;;;;;;5126682;27;20539;-61
2022/01/14 13:43:03;;;;;;;13.88;7.63;;;;;;;;;;5128719;27;20023;-62
2022/01/14 13:45:28;;;;;;;20.52;10.45;;;;;;;;;;5126996;27;20038;-62
2022/01/14 13:48:10;;;;;;;16.15;14.50;;;;;;;;;;5128046;27;20019;-59
2022/01/14 13:50:40;;;;;;;9.45;4.38;;;;;;;;;;5127564;27;20019;-62
2022/01/14 13:53:06;;;;;;;19.67;15.43;;;;;;;;;;5127670;27;20031;-61
2022/01/14 13:55:33;;;;;;;20.90;17.02;;;;;;;;;;5127520;27;20012;-67
2022/01/14 13:58:13;;;;;;;24.17;21.42;;;;;;;;;;5127491;27;20023;-67
2022/01/14 14:00:39;;;;;;;25.30;19.90;;;;;;;;;;5126458;27;20027;-61
2022/01/14 14:03:16;;;;;;;28.10;8.48;;;;;;;;;;5127332;27;20030;-61
2022/01/14 14:05:47;;;;;;;15.45;6.43;;;;;;;;;;5108452;27;20637;-64
2022/01/14 14:08:22;;;;;;;8.95;7.20;;;;;;;;;;5127471;27;20062;-66
2022/01/14 14:16:40;;;;;;;9.23;4.50;;;;;;;;;;5127754;27;20075;-63
2022/01/14 14:19:05;;;;;;;16.58;11.07;;;;;;;;;;5128438;27;20015;-63
2022/01/14 14:21:33;;;;;;;36.40;32.47;;;;;;;;;;5126035;27;20181;-72
2022/01/14 14:24:00;;;;;;;14.52;7.25;;;;;;;;;;5128259;27;20063;-71
2022/01/14 14:26:29;;;;;;;24.50;15.75;;;;;;;;;;5127952;27;20023;-69
2022/01/14 14:28:55;;;;;;;15.65;8.65;;;;;;;;;;5125279;28;20019;-72
2022/01/14 14:31:27;;;;;;;17.25;5.75;;;;;;;;;;5127415;28;20027;-70
2022/01/14 14:33:52;;;;;;;75.25;61.60;;;;;;;;;;5125723;28;20094;-64
2022/01/14 14:36:19;;;;;;;21.98;14.23;;;;;;;;;;5127017;27;20651;-66
2022/01/14 14:38:46;;;;;;;24.63;19.98;;;;;;;;;;5127364;27;20020;-69
2022/01/14 14:41:11;;;;;;;122.05;92.95;;;;;;;;;;5131156;27;20390;-69
2022/01/14 14:43:37;;;;;;;32.95;26.08;;;;;;;;;;5129704;27;20022;-68
2022/01/14 14:46:04;;;;;;;27.02;21.70;;;;;;;;;;5130914;27;20085;-67
2022/01/14 14:48:29;;;;;;;11.57;5.55;;;;;;;;;;5130611;27;20752;-69
2022/01/14 14:50:55;;;;;;;31.30;26.15;;;;;;;;;;5131045;27;20027;-66
2022/01/14 14:53:20;;;;;;;25.42;11.75;;;;;;;;;;5112480;27;20398;-68
2022/01/14 14:55:46;;;;;;;73.00;52.00;;;;;;;;;;5130745;27;20043;-71
2022/01/14 14:58:11;;;;;;;54.40;33.05;;;;;;;;;;5128424;27;20015;-66
2022/01/14 15:00:37;;;;;;;37.30;20.80;;;;;;;;;;5128727;27;20019;-66
2022/01/14 15:03:06;;;;;;;23.60;16.63;;;;;;;;;;5129921;27;20031;-67
2022/01/14 15:05:31;;;;;;;54.95;29.55;;;;;;;;;;5129047;27;20019;-67
2022/01/14 15:07:59;;;;;;;21.77;14.50;;;;;;;;;;5129496;27;20385;-68